sensor_id;sensor_type;location;lat;lon;timestamp;P1;durP1;ratioP1;P2;durP2;ratioP2
15667;SDS011;7934;48.710;9.024;2023-02-28T00:01:31;2.50;;;2.30;;
15667;SDS011;7934;48.710;9.024;2023-02-28T00:04:20;3.07;;;2.40;;
15667;SDS011;7934;48.710;9.024;2023-02-28T00:06:47;2.77;;;2.17;;
15667;SDS011;7934;48.710;9.024;2023-02-28T00:09:28;3.47;;;2.37;;
15667;SDS011;7934;48.710;9.024;2023-02-28T00:12:37;3.60;;;2.47;;
15667;SDS011;7934;48.710;9.024;2023-02-28T00:15:18;2.37;;;2.20;;
15667;SDS011;7934;48.710;9.024;2023-02-28T00:48:47;3.13;;;2.20;;
15667;SDS011;7934;48.710;9.024;2023-02-28T00:51:34;2.30;;;1.90;;
15667;SDS011;7934;48.710;9.024;2023-02-28T01:00:12;2.50;;;2.30;;
15667;SDS011;7934;48.710;9.024;2023-02-28T01:00:57;3.47;;;2.63;;
15667;SDS011;7934;48.710;9.024;2023-02-28T01:03:28;3.13;;;2.23;;
15667;SDS011;7934;48.710;9.024;2023-02-28T02:45:03;5.97;;;3.60;;
15667;SDS011;7934;48.710;9.024;2023-02-28T02:53:33;5.57;;;3.27;;
15667;SDS011;7934;48.710;9.024;2023-02-28T02:56:12;5.23;;;3.87;;
15667;SDS011;7934;48.710;9.024;2023-02-28T03:11:05;4.57;;;3.67;;
15667;SDS011;7934;48.710;9.024;2023-02-28T03:13:41;4.63;;;3.93;;
15667;SDS011;7934;48.710;9.024;2023-02-28T03:16:19;5.10;;;3.60;;
15667;SDS011;7934;48.710;9.024;2023-02-28T03:31:35;5.47;;;3.90;;
15667;SDS011;7934;48.710;9.024;2023-02-28T03:37:42;5.77;;;4.13;;
15667;SDS011;7934;48.710;9.024;2023-02-28T03:40:11;5.80;;;4.37;;
15667;SDS011;7934;48.710;9.024;2023-02-28T03:42:41;5.77;;;4.20;;
15667;SDS011;7934;48.710;9.024;2023-02-28T03:45:10;5.47;;;4.23;;
15667;SDS011;7934;48.710;9.024;2023-02-28T03:47:40;5.67;;;4.43;;
15667;SDS011;7934;48.710;9.024;2023-02-28T03:50:26;4.03;;;3.73;;
15667;SDS011;7934;48.710;9.024;2023-02-28T03:52:55;5.50;;;4.57;;
15667;SDS011;7934;48.710;9.024;2023-02-28T03:55:26;5.70;;;4.00;;
15667;SDS011;7934;48.710;9.024;2023-02-28T03:58:04;4.50;;;4.10;;
15667;SDS011;7934;48.710;9.024;2023-02-28T04:00:34;5.43;;;4.60;;
15667;SDS011;7934;48.710;9.024;2023-02-28T04:03:07;5.73;;;4.77;;
15667;SDS011;7934;48.710;9.024;2023-02-28T04:05:53;4.43;;;4.03;;
15667;SDS011;7934;48.710;9.024;2023-02-28T04:08:41;5.23;;;4.53;;
15667;SDS011;7934;48.710;9.024;2023-02-28T04:11:12;6.20;;;5.20;;
15667;SDS011;7934;48.710;9.024;2023-02-28T04:13:39;6.33;;;5.20;;
15667;SDS011;7934;48.710;9.024;2023-02-28T04:16:09;6.03;;;4.63;;
15667;SDS011;7934;48.710;9.024;2023-02-28T04:18:42;6.13;;;4.53;;
15667;SDS011;7934;48.710;9.024;2023-02-28T04:21:23;5.53;;;4.97;;
15667;SDS011;7934;48.710;9.024;2023-02-28T04:23:50;5.63;;;4.73;;
15667;SDS011;7934;48.710;9.024;2023-02-28T04:26:17;6.53;;;5.07;;
15667;SDS011;7934;48.710;9.024;2023-02-28T04:28:45;7.93;;;5.23;;
15667;SDS011;7934;48.710;9.024;2023-02-28T04:31:12;6.63;;;4.77;;
15667;SDS011;7934;48.710;9.024;2023-02-28T04:33:39;8.07;;;5.30;;
15667;SDS011;7934;48.710;9.024;2023-02-28T04:36:09;9.30;;;5.50;;
15667;SDS011;7934;48.710;9.024;2023-02-28T04:41:29;5.97;;;5.37;;
15667;SDS011;7934;48.710;9.024;2023-02-28T04:43:56;8.77;;;6.07;;
15667;SDS011;7934;48.710;9.024;2023-02-28T04:46:23;6.83;;;5.07;;
15667;SDS011;7934;48.710;9.024;2023-02-28T04:48:50;9.50;;;5.07;;
15667;SDS011;7934;48.710;9.024;2023-02-28T04:51:20;5.47;;;4.97;;
15667;SDS011;7934;48.710;9.024;2023-02-28T04:53:48;6.37;;;5.30;;
15667;SDS011;7934;48.710;9.024;2023-02-28T04:59:16;5.43;;;4.93;;
15667;SDS011;7934;48.710;9.024;2023-02-28T05:01:45;7.23;;;5.53;;
15667;SDS011;7934;48.710;9.024;2023-02-28T05:04:15;10.07;;;5.27;;
15667;SDS011;7934;48.710;9.024;2023-02-28T05:06:44;5.73;;;4.83;;
15667;SDS011;7934;48.710;9.024;2023-02-28T05:09:11;6.63;;;5.03;;
15667;SDS011;7934;48.710;9.024;2023-02-28T05:11:39;6.23;;;4.63;;
15667;SDS011;7934;48.710;9.024;2023-02-28T05:14:13;8.27;;;5.27;;
15667;SDS011;7934;48.710;9.024;2023-02-28T05:16:40;7.37;;;5.33;;
15667;SDS011;7934;48.710;9.024;2023-02-28T05:19:08;8.43;;;5.50;;
15667;SDS011;7934;48.710;9.024;2023-02-28T05:21:35;6.30;;;5.67;;
15667;SDS011;7934;48.710;9.024;2023-02-28T05:24:05;6.20;;;5.60;;
15667;SDS011;7934;48.710;9.024;2023-02-28T05:26:34;7.03;;;5.27;;
15667;SDS011;7934;48.710;9.024;2023-02-28T05:29:01;10.67;;;6.27;;
15667;SDS011;7934;48.710;9.024;2023-02-28T05:31:28;6.00;;;5.27;;
15667;SDS011;7934;48.710;9.024;2023-02-28T05:33:56;5.53;;;5.03;;
15667;SDS011;7934;48.710;9.024;2023-02-28T05:36:23;9.57;;;5.20;;
15667;SDS011;7934;48.710;9.024;2023-02-28T05:38:50;7.23;;;5.47;;
15667;SDS011;7934;48.710;9.024;2023-02-28T05:41:19;8.50;;;5.90;;
15667;SDS011;7934;48.710;9.024;2023-02-28T05:46:31;9.30;;;5.17;;
15667;SDS011;7934;48.710;9.024;2023-02-28T05:48:58;6.47;;;5.33;;
15667;SDS011;7934;48.710;9.024;2023-02-28T05:51:26;6.67;;;5.33;;
15667;SDS011;7934;48.710;9.024;2023-02-28T05:53:53;6.83;;;5.70;;
15667;SDS011;7934;48.710;9.024;2023-02-28T05:56:21;6.57;;;5.37;;
15667;SDS011;7934;48.710;9.024;2023-02-28T05:58:48;6.00;;;5.23;;
15667;SDS011;7934;48.710;9.024;2023-02-28T06:01:19;7.50;;;6.10;;
15667;SDS011;7934;48.710;9.024;2023-02-28T06:03:47;7.27;;;5.70;;
15667;SDS011;7934;48.710;9.024;2023-02-28T06:06:15;7.40;;;5.70;;
15667;SDS011;7934;48.710;9.024;2023-02-28T06:08:42;12.00;;;6.00;;
15667;SDS011;7934;48.710;9.024;2023-02-28T06:11:09;7.57;;;4.90;;
15667;SDS011;7934;48.710;9.024;2023-02-28T06:13:38;7.57;;;5.43;;
15667;SDS011;7934;48.710;9.024;2023-02-28T06:16:05;6.73;;;6.03;;
15667;SDS011;7934;48.710;9.024;2023-02-28T06:18:33;7.57;;;6.13;;
15667;SDS011;7934;48.710;9.024;2023-02-28T06:21:06;12.00;;;5.83;;
15667;SDS011;7934;48.710;9.024;2023-02-28T06:23:37;14.10;;;6.97;;
15667;SDS011;7934;48.710;9.024;2023-02-28T06:26:10;6.80;;;6.10;;
15667;SDS011;7934;48.710;9.024;2023-02-28T06:28:39;7.77;;;6.37;;
15667;SDS011;7934;48.710;9.024;2023-02-28T06:31:07;9.43;;;6.33;;
15667;SDS011;7934;48.710;9.024;2023-02-28T06:33:34;13.10;;;6.60;;
15667;SDS011;7934;48.710;9.024;2023-02-28T06:36:02;7.27;;;5.47;;
15667;SDS011;7934;48.710;9.024;2023-02-28T06:38:29;9.50;;;6.93;;
15667;SDS011;7934;48.710;9.024;2023-02-28T06:40:57;10.13;;;6.80;;
15667;SDS011;7934;48.710;9.024;2023-02-28T06:43:25;10.77;;;6.60;;
15667;SDS011;7934;48.710;9.024;2023-02-28T06:45:57;11.03;;;7.90;;
15667;SDS011;7934;48.710;9.024;2023-02-28T06:48:25;15.43;;;6.70;;
15667;SDS011;7934;48.710;9.024;2023-02-28T06:51:04;7.67;;;5.47;;
15667;SDS011;7934;48.710;9.024;2023-02-28T06:53:31;10.30;;;6.93;;
15667;SDS011;7934;48.710;9.024;2023-02-28T06:55:59;10.20;;;7.43;;
15667;SDS011;7934;48.710;9.024;2023-02-28T06:58:26;11.10;;;6.90;;
15667;SDS011;7934;48.710;9.024;2023-02-28T07:00:55;15.57;;;7.67;;
15667;SDS011;7934;48.710;9.024;2023-02-28T07:03:22;10.90;;;6.70;;
15667;SDS011;7934;48.710;9.024;2023-02-28T07:05:52;8.27;;;7.27;;
15667;SDS011;7934;48.710;9.024;2023-02-28T07:08:21;8.77;;;7.13;;
15667;SDS011;7934;48.710;9.024;2023-02-28T07:10:51;10.77;;;7.13;;
15667;SDS011;7934;48.710;9.024;2023-02-28T07:13:18;9.20;;;7.07;;
15667;SDS011;7934;48.710;9.024;2023-02-28T07:15:52;9.52;;;8.38;;
15667;SDS011;7934;48.710;9.024;2023-02-28T07:18:21;8.93;;;6.70;;
15667;SDS011;7934;48.710;9.024;2023-02-28T07:20:48;9.97;;;7.47;;
15667;SDS011;7934;48.710;9.024;2023-02-28T07:23:15;7.73;;;6.93;;
15667;SDS011;7934;48.710;9.024;2023-02-28T07:25:42;11.83;;;6.47;;
15667;SDS011;7934;48.710;9.024;2023-02-28T07:28:10;12.37;;;7.07;;
15667;SDS011;7934;48.710;9.024;2023-02-28T07:30:37;10.13;;;7.10;;
15667;SDS011;7934;48.710;9.024;2023-02-28T07:33:21;11.20;;;6.90;;
15667;SDS011;7934;48.710;9.024;2023-02-28T07:35:48;12.43;;;7.87;;
15667;SDS011;7934;48.710;9.024;2023-02-28T07:38:16;12.03;;;7.17;;
15667;SDS011;7934;48.710;9.024;2023-02-28T07:40:43;10.67;;;7.07;;
15667;SDS011;7934;48.710;9.024;2023-02-28T07:43:10;13.93;;;7.07;;
15667;SDS011;7934;48.710;9.024;2023-02-28T07:45:37;10.70;;;7.43;;
15667;SDS011;7934;48.710;9.024;2023-02-28T07:48:05;8.53;;;6.10;;
15667;SDS011;7934;48.710;9.024;2023-02-28T07:50:36;10.20;;;7.33;;
15667;SDS011;7934;48.710;9.024;2023-02-28T07:53:03;10.90;;;7.00;;
15667;SDS011;7934;48.710;9.024;2023-02-28T07:55:30;8.60;;;5.87;;
15667;SDS011;7934;48.710;9.024;2023-02-28T07:57:57;15.67;;;7.83;;
15667;SDS011;7934;48.710;9.024;2023-02-28T08:00:25;11.27;;;7.57;;
15667;SDS011;7934;48.710;9.024;2023-02-28T08:02:58;12.30;;;8.43;;
15667;SDS011;7934;48.710;9.024;2023-02-28T08:05:29;9.30;;;7.23;;
15667;SDS011;7934;48.710;9.024;2023-02-28T08:08:00;10.67;;;7.73;;
15667;SDS011;7934;48.710;9.024;2023-02-28T08:10:33;8.90;;;6.97;;
15667;SDS011;7934;48.710;9.024;2023-02-28T08:13:23;11.70;;;7.00;;
15667;SDS011;7934;48.710;9.024;2023-02-28T08:16:00;10.50;;;8.47;;
15667;SDS011;7934;48.710;9.024;2023-02-28T08:18:34;10.30;;;7.53;;
15667;SDS011;7934;48.710;9.024;2023-02-28T08:21:05;9.87;;;7.50;;
15667;SDS011;7934;48.710;9.024;2023-02-28T08:23:34;11.10;;;7.97;;
15667;SDS011;7934;48.710;9.024;2023-02-28T08:26:01;9.97;;;7.47;;
15667;SDS011;7934;48.710;9.024;2023-02-28T08:28:28;9.57;;;7.40;;
15667;SDS011;7934;48.710;9.024;2023-02-28T08:30:55;10.27;;;7.83;;
15667;SDS011;7934;48.710;9.024;2023-02-28T08:33:23;15.63;;;8.20;;
15667;SDS011;7934;48.710;9.024;2023-02-28T08:35:52;10.87;;;8.50;;
15667;SDS011;7934;48.710;9.024;2023-02-28T08:38:20;12.60;;;8.50;;
15667;SDS011;7934;48.710;9.024;2023-02-28T08:40:48;10.37;;;8.63;;
15667;SDS011;7934;48.710;9.024;2023-02-28T08:43:16;9.00;;;7.07;;
15667;SDS011;7934;48.710;9.024;2023-02-28T08:45:43;10.43;;;7.30;;
15667;SDS011;7934;48.710;9.024;2023-02-28T08:48:10;11.43;;;8.37;;
15667;SDS011;7934;48.710;9.024;2023-02-28T08:50:38;13.00;;;7.90;;
15667;SDS011;7934;48.710;9.024;2023-02-28T08:53:05;9.67;;;8.27;;
15667;SDS011;7934;48.710;9.024;2023-02-28T08:55:32;13.63;;;7.80;;
15667;SDS011;7934;48.710;9.024;2023-02-28T08:58:01;13.20;;;8.07;;
15667;SDS011;7934;48.710;9.024;2023-02-28T09:00:28;12.10;;;7.80;;
15667;SDS011;7934;48.710;9.024;2023-02-28T09:02:55;14.43;;;7.70;;
15667;SDS011;7934;48.710;9.024;2023-02-28T09:05:22;10.40;;;9.27;;
15667;SDS011;7934;48.710;9.024;2023-02-28T09:10:58;13.83;;;7.87;;
15667;SDS011;7934;48.710;9.024;2023-02-28T09:16:31;13.37;;;8.10;;
15667;SDS011;7934;48.710;9.024;2023-02-28T09:18:59;16.97;;;8.83;;
15667;SDS011;7934;48.710;9.024;2023-02-28T09:21:26;15.57;;;8.50;;
15667;SDS011;7934;48.710;9.024;2023-02-28T09:23:53;10.83;;;7.97;;
15667;SDS011;7934;48.710;9.024;2023-02-28T09:26:21;10.00;;;7.87;;
15667;SDS011;7934;48.710;9.024;2023-02-28T09:28:51;8.70;;;7.63;;
15667;SDS011;7934;48.710;9.024;2023-02-28T09:31:29;11.77;;;8.10;;
15667;SDS011;7934;48.710;9.024;2023-02-28T09:34:04;10.53;;;8.07;;
15667;SDS011;7934;48.710;9.024;2023-02-28T09:36:32;9.23;;;6.00;;
15667;SDS011;7934;48.710;9.024;2023-02-28T09:39:00;12.37;;;7.80;;
15667;SDS011;7934;48.710;9.024;2023-02-28T09:41:44;11.10;;;7.93;;
15667;SDS011;7934;48.710;9.024;2023-02-28T09:44:20;10.33;;;7.60;;
15667;SDS011;7934;48.710;9.024;2023-02-28T09:46:50;17.13;;;7.57;;
15667;SDS011;7934;48.710;9.024;2023-02-28T09:49:22;13.80;;;7.57;;
15667;SDS011;7934;48.710;9.024;2023-02-28T09:51:50;12.53;;;7.73;;
15667;SDS011;7934;48.710;9.024;2023-02-28T09:54:18;7.90;;;7.10;;
15667;SDS011;7934;48.710;9.024;2023-02-28T09:56:54;11.90;;;8.20;;
15667;SDS011;7934;48.710;9.024;2023-02-28T09:59:37;11.00;;;7.67;;
15667;SDS011;7934;48.710;9.024;2023-02-28T10:02:10;11.50;;;8.17;;
15667;SDS011;7934;48.710;9.024;2023-02-28T10:04:43;11.23;;;9.03;;
15667;SDS011;7934;48.710;9.024;2023-02-28T10:07:18;10.30;;;7.57;;
15667;SDS011;7934;48.710;9.024;2023-02-28T10:09:49;9.40;;;7.43;;
15667;SDS011;7934;48.710;9.024;2023-02-28T10:12:39;10.07;;;7.30;;
15667;SDS011;7934;48.710;9.024;2023-02-28T10:15:09;13.70;;;9.52;;
15667;SDS011;7934;48.710;9.024;2023-02-28T10:17:44;11.47;;;8.53;;
15667;SDS011;7934;48.710;9.024;2023-02-28T10:20:30;11.10;;;7.57;;
15667;SDS011;7934;48.710;9.024;2023-02-28T10:23:02;10.30;;;7.93;;
15667;SDS011;7934;48.710;9.024;2023-02-28T10:25:33;11.10;;;8.70;;
15667;SDS011;7934;48.710;9.024;2023-02-28T10:28:09;9.33;;;6.83;;
15667;SDS011;7934;48.710;9.024;2023-02-28T10:30:38;17.93;;;7.40;;
15667;SDS011;7934;48.710;9.024;2023-02-28T10:33:08;11.27;;;8.00;;
15667;SDS011;7934;48.710;9.024;2023-02-28T10:36:15;8.40;;;6.93;;
15667;SDS011;7934;48.710;9.024;2023-02-28T10:39:29;10.43;;;7.57;;
15667;SDS011;7934;48.710;9.024;2023-02-28T10:41:37;10.27;;;7.27;;
15667;SDS011;7934;48.710;9.024;2023-02-28T10:44:13;12.37;;;8.67;;
15667;SDS011;7934;48.710;9.024;2023-02-28T10:46:41;9.23;;;7.80;;
15667;SDS011;7934;48.710;9.024;2023-02-28T10:49:12;12.67;;;7.40;;
15667;SDS011;7934;48.710;9.024;2023-02-28T10:51:42;12.53;;;8.10;;
15667;SDS011;7934;48.710;9.024;2023-02-28T10:54:47;13.43;;;8.30;;
15667;SDS011;7934;48.710;9.024;2023-02-28T10:57:12;9.70;;;7.73;;
15667;SDS011;7934;48.710;9.024;2023-02-28T10:59:41;10.30;;;6.87;;
15667;SDS011;7934;48.710;9.024;2023-02-28T11:02:28;11.13;;;7.40;;
15667;SDS011;7934;48.710;9.024;2023-02-28T11:04:56;14.83;;;8.00;;
15667;SDS011;7934;48.710;9.024;2023-02-28T11:07:25;10.57;;;7.63;;
15667;SDS011;7934;48.710;9.024;2023-02-28T11:09:56;8.50;;;7.67;;
15667;SDS011;7934;48.710;9.024;2023-02-28T11:12:34;9.67;;;7.73;;
15667;SDS011;7934;48.710;9.024;2023-02-28T11:15:19;10.87;;;8.30;;
15667;SDS011;7934;48.710;9.024;2023-02-28T11:17:52;9.53;;;7.67;;
15667;SDS011;7934;48.710;9.024;2023-02-28T11:20:20;8.60;;;7.03;;
15667;SDS011;7934;48.710;9.024;2023-02-28T11:22:50;8.67;;;7.13;;
15667;SDS011;7934;48.710;9.024;2023-02-28T11:25:19;10.73;;;7.83;;
15667;SDS011;7934;48.710;9.024;2023-02-28T11:27:48;11.13;;;8.07;;
15667;SDS011;7934;48.710;9.024;2023-02-28T11:30:27;9.73;;;8.03;;
15667;SDS011;7934;48.710;9.024;2023-02-28T11:32:54;9.90;;;8.07;;
15667;SDS011;7934;48.710;9.024;2023-02-28T11:35:23;10.57;;;7.87;;
15667;SDS011;7934;48.710;9.024;2023-02-28T11:38:12;12.37;;;8.10;;
15667;SDS011;7934;48.710;9.024;2023-02-28T11:40:42;11.90;;;7.90;;
15667;SDS011;7934;48.710;9.024;2023-02-28T11:43:14;10.30;;;7.93;;
15667;SDS011;7934;48.710;9.024;2023-02-28T11:45:49;10.63;;;8.27;;
15667;SDS011;7934;48.710;9.024;2023-02-28T11:48:21;11.97;;;8.53;;
15667;SDS011;7934;48.710;9.024;2023-02-28T11:53:50;12.20;;;8.13;;
15667;SDS011;7934;48.710;9.024;2023-02-28T11:56:21;10.73;;;7.57;;
15667;SDS011;7934;48.710;9.024;2023-02-28T11:58:52;10.50;;;8.63;;
15667;SDS011;7934;48.710;9.024;2023-02-28T12:01:25;11.20;;;8.23;;
15667;SDS011;7934;48.710;9.024;2023-02-28T12:03:57;9.57;;;7.93;;
15667;SDS011;7934;48.710;9.024;2023-02-28T12:06:25;9.30;;;8.40;;
15667;SDS011;7934;48.710;9.024;2023-02-28T12:09:11;14.50;;;9.03;;
15667;SDS011;7934;48.710;9.024;2023-02-28T12:11:43;9.83;;;7.90;;
15667;SDS011;7934;48.710;9.024;2023-02-28T12:14:21;9.97;;;8.50;;
15667;SDS011;7934;48.710;9.024;2023-02-28T12:16:55;9.30;;;7.80;;
15667;SDS011;7934;48.710;9.024;2023-02-28T12:19:26;11.60;;;8.13;;
15667;SDS011;7934;48.710;9.024;2023-02-28T12:22:10;9.63;;;7.67;;
15667;SDS011;7934;48.710;9.024;2023-02-28T12:27:28;10.20;;;8.40;;
15667;SDS011;7934;48.710;9.024;2023-02-28T12:29:57;8.80;;;7.80;;
15667;SDS011;7934;48.710;9.024;2023-02-28T12:32:26;10.60;;;8.13;;
15667;SDS011;7934;48.710;9.024;2023-02-28T12:34:55;13.97;;;7.50;;
15667;SDS011;7934;48.710;9.024;2023-02-28T12:37:25;9.87;;;7.73;;
15667;SDS011;7934;48.710;9.024;2023-02-28T12:39:54;11.73;;;8.17;;
15667;SDS011;7934;48.710;9.024;2023-02-28T12:42:28;12.20;;;7.97;;
15667;SDS011;7934;48.710;9.024;2023-02-28T12:44:56;11.80;;;7.80;;
15667;SDS011;7934;48.710;9.024;2023-02-28T12:47:26;10.07;;;8.63;;
15667;SDS011;7934;48.710;9.024;2023-02-28T12:49:53;11.80;;;8.47;;
15667;SDS011;7934;48.710;9.024;2023-02-28T12:52:23;8.90;;;7.70;;
15667;SDS011;7934;48.710;9.024;2023-02-28T12:54:52;12.30;;;8.07;;
15667;SDS011;7934;48.710;9.024;2023-02-28T12:57:22;11.17;;;7.90;;
15667;SDS011;7934;48.710;9.024;2023-02-28T12:59:54;12.57;;;8.60;;
15667;SDS011;7934;48.710;9.024;2023-02-28T13:08:04;8.53;;;7.73;;
15667;SDS011;7934;48.710;9.024;2023-02-28T13:10:44;12.17;;;7.63;;
15667;SDS011;7934;48.710;9.024;2023-02-28T13:13:16;11.27;;;7.63;;
15667;SDS011;7934;48.710;9.024;2023-02-28T13:15:58;8.87;;;7.57;;
15667;SDS011;7934;48.710;9.024;2023-02-28T13:18:27;8.07;;;7.27;;
15667;SDS011;7934;48.710;9.024;2023-02-28T13:20:55;9.73;;;7.70;;
15667;SDS011;7934;48.710;9.024;2023-02-28T13:23:58;8.80;;;7.90;;
15667;SDS011;7934;48.710;9.024;2023-02-28T13:34:41;9.83;;;8.20;;
15667;SDS011;7934;48.710;9.024;2023-02-28T13:39:55;8.03;;;7.23;;
15667;SDS011;7934;48.710;9.024;2023-02-28T13:42:33;10.17;;;7.73;;
15667;SDS011;7934;48.710;9.024;2023-02-28T13:45:24;9.83;;;7.80;;
15667;SDS011;7934;48.710;9.024;2023-02-28T13:47:52;8.93;;;7.83;;
15667;SDS011;7934;48.710;9.024;2023-02-28T13:50:22;9.67;;;7.80;;
15667;SDS011;7934;48.710;9.024;2023-02-28T13:52:53;8.50;;;7.50;;
15667;SDS011;7934;48.710;9.024;2023-02-28T13:55:24;11.50;;;8.32;;
15667;SDS011;7934;48.710;9.024;2023-02-28T13:57:55;10.07;;;7.60;;
15667;SDS011;7934;48.710;9.024;2023-02-28T14:00:32;10.83;;;8.33;;
15667;SDS011;7934;48.710;9.024;2023-02-28T14:03:17;9.87;;;8.40;;
15667;SDS011;7934;48.710;9.024;2023-02-28T14:08:33;9.03;;;8.13;;
15667;SDS011;7934;48.710;9.024;2023-02-28T14:11:03;9.47;;;8.23;;
15667;SDS011;7934;48.710;9.024;2023-02-28T14:13:37;18.20;;;8.53;;
15667;SDS011;7934;48.710;9.024;2023-02-28T14:16:09;12.50;;;8.90;;
15667;SDS011;7934;48.710;9.024;2023-02-28T14:18:37;12.90;;;8.27;;
15667;SDS011;7934;48.710;9.024;2023-02-28T14:21:11;8.10;;;7.27;;
15667;SDS011;7934;48.710;9.024;2023-02-28T14:26:31;10.73;;;8.10;;
15667;SDS011;7934;48.710;9.024;2023-02-28T14:29:07;10.70;;;8.47;;
15667;SDS011;7934;48.710;9.024;2023-02-28T14:31:40;8.53;;;7.63;;
15667;SDS011;7934;48.710;9.024;2023-02-28T14:34:15;12.17;;;7.90;;
15667;SDS011;7934;48.710;9.024;2023-02-28T14:36:46;8.90;;;7.40;;
15667;SDS011;7934;48.710;9.024;2023-02-28T14:39:14;9.47;;;8.00;;
15667;SDS011;7934;48.710;9.024;2023-02-28T14:41:46;13.13;;;8.37;;
15667;SDS011;7934;48.710;9.024;2023-02-28T14:44:14;10.20;;;7.70;;
15667;SDS011;7934;48.710;9.024;2023-02-28T14:46:42;12.90;;;7.43;;
15667;SDS011;7934;48.710;9.024;2023-02-28T14:49:12;9.97;;;8.20;;
15667;SDS011;7934;48.710;9.024;2023-02-28T14:51:41;11.50;;;8.43;;
15667;SDS011;7934;48.710;9.024;2023-02-28T14:54:12;10.13;;;8.37;;
15667;SDS011;7934;48.710;9.024;2023-02-28T14:56:40;9.60;;;7.30;;
15667;SDS011;7934;48.710;9.024;2023-02-28T14:59:23;10.60;;;8.75;;
15667;SDS011;7934;48.710;9.024;2023-02-28T15:01:50;9.10;;;8.20;;
15667;SDS011;7934;48.710;9.024;2023-02-28T15:04:26;9.27;;;8.17;;
15667;SDS011;7934;48.710;9.024;2023-02-28T15:07:13;10.90;;;8.30;;
15667;SDS011;7934;48.710;9.024;2023-02-28T15:09:41;11.40;;;8.33;;
15667;SDS011;7934;48.710;9.024;2023-02-28T15:12:09;13.47;;;7.23;;
15667;SDS011;7934;48.710;9.024;2023-02-28T15:14:42;11.80;;;8.47;;
15667;SDS011;7934;48.710;9.024;2023-02-28T15:17:12;10.93;;;7.70;;
15667;SDS011;7934;48.710;9.024;2023-02-28T15:19:43;8.80;;;7.87;;
15667;SDS011;7934;48.710;9.024;2023-02-28T15:22:13;11.53;;;8.30;;
15667;SDS011;7934;48.710;9.024;2023-02-28T15:24:43;9.50;;;8.13;;
15667;SDS011;7934;48.710;9.024;2023-02-28T15:27:12;7.60;;;6.80;;
15667;SDS011;7934;48.710;9.024;2023-02-28T15:29:45;7.77;;;7.00;;
15667;SDS011;7934;48.710;9.024;2023-02-28T15:32:21;8.00;;;7.10;;
15667;SDS011;7934;48.710;9.024;2023-02-28T15:34:50;9.17;;;7.93;;
15667;SDS011;7934;48.710;9.024;2023-02-28T15:37:27;8.47;;;7.57;;
15667;SDS011;7934;48.710;9.024;2023-02-28T15:39:55;9.90;;;7.20;;
15667;SDS011;7934;48.710;9.024;2023-02-28T15:42:23;9.67;;;7.90;;
15667;SDS011;7934;48.710;9.024;2023-02-28T15:44:55;10.73;;;8.30;;
15667;SDS011;7934;48.710;9.024;2023-02-28T15:47:23;15.97;;;8.43;;
15667;SDS011;7934;48.710;9.024;2023-02-28T15:49:51;11.77;;;8.73;;
15667;SDS011;7934;48.710;9.024;2023-02-28T15:52:19;10.77;;;7.93;;
15667;SDS011;7934;48.710;9.024;2023-02-28T15:54:48;8.43;;;7.53;;
15667;SDS011;7934;48.710;9.024;2023-02-28T15:57:17;9.03;;;7.60;;
15667;SDS011;7934;48.710;9.024;2023-02-28T15:59:48;8.73;;;7.53;;
15667;SDS011;7934;48.710;9.024;2023-02-28T16:02:18;11.00;;;8.13;;
15667;SDS011;7934;48.710;9.024;2023-02-28T16:04:58;9.50;;;7.97;;
15667;SDS011;7934;48.710;9.024;2023-02-28T16:07:26;10.07;;;8.23;;
15667;SDS011;7934;48.710;9.024;2023-02-28T16:09:53;10.03;;;8.30;;
15667;SDS011;7934;48.710;9.024;2023-02-28T16:12:20;10.27;;;8.17;;
15667;SDS011;7934;48.710;9.024;2023-02-28T16:14:50;10.33;;;8.70;;
15667;SDS011;7934;48.710;9.024;2023-02-28T16:17:20;8.93;;;7.23;;
15667;SDS011;7934;48.710;9.024;2023-02-28T16:19:48;11.00;;;8.20;;
15667;SDS011;7934;48.710;9.024;2023-02-28T16:22:15;11.17;;;8.20;;
15667;SDS011;7934;48.710;9.024;2023-02-28T16:24:43;11.00;;;8.10;;
15667;SDS011;7934;48.710;9.024;2023-02-28T16:27:14;9.57;;;7.67;;
15667;SDS011;7934;48.710;9.024;2023-02-28T16:29:45;11.17;;;8.20;;
15667;SDS011;7934;48.710;9.024;2023-02-28T16:32:13;12.20;;;7.67;;
15667;SDS011;7934;48.710;9.024;2023-02-28T16:34:42;10.23;;;7.90;;
15667;SDS011;7934;48.710;9.024;2023-02-28T16:37:10;9.80;;;6.97;;
15667;SDS011;7934;48.710;9.024;2023-02-28T16:39:38;9.73;;;7.97;;
15667;SDS011;7934;48.710;9.024;2023-02-28T16:42:05;10.00;;;7.87;;
15667;SDS011;7934;48.710;9.024;2023-02-28T16:44:33;11.43;;;7.90;;
15667;SDS011;7934;48.710;9.024;2023-02-28T16:47:01;11.23;;;8.23;;
15667;SDS011;7934;48.710;9.024;2023-02-28T16:49:29;10.23;;;8.47;;
15667;SDS011;7934;48.710;9.024;2023-02-28T16:51:58;13.33;;;8.33;;
15667;SDS011;7934;48.710;9.024;2023-02-28T16:54:25;12.83;;;8.07;;
15667;SDS011;7934;48.710;9.024;2023-02-28T16:56:52;12.07;;;9.03;;
15667;SDS011;7934;48.710;9.024;2023-02-28T16:59:19;11.23;;;9.85;;
15667;SDS011;7934;48.710;9.024;2023-02-28T17:01:48;11.33;;;9.27;;
15667;SDS011;7934;48.710;9.024;2023-02-28T17:04:15;11.87;;;9.30;;
15667;SDS011;7934;48.710;9.024;2023-02-28T17:06:42;13.27;;;9.20;;
15667;SDS011;7934;48.710;9.024;2023-02-28T17:11:41;11.27;;;8.60;;
15667;SDS011;7934;48.710;9.024;2023-02-28T17:14:09;15.67;;;9.83;;
15667;SDS011;7934;48.710;9.024;2023-02-28T17:16:37;13.53;;;9.13;;
15667;SDS011;7934;48.710;9.024;2023-02-28T17:19:09;14.47;;;9.07;;
15667;SDS011;7934;48.710;9.024;2023-02-28T17:21:36;17.67;;;12.17;;
15667;SDS011;7934;48.710;9.024;2023-02-28T17:24:04;12.00;;;8.60;;
15667;SDS011;7934;48.710;9.024;2023-02-28T17:26:31;15.07;;;9.23;;
15667;SDS011;7934;48.710;9.024;2023-02-28T17:29:00;10.57;;;9.00;;
15667;SDS011;7934;48.710;9.024;2023-02-28T17:31:27;14.80;;;9.43;;
15667;SDS011;7934;48.710;9.024;2023-02-28T17:33:55;14.47;;;9.93;;
15667;SDS011;7934;48.710;9.024;2023-02-28T17:36:23;14.23;;;9.40;;
15667;SDS011;7934;48.710;9.024;2023-02-28T17:38:51;17.27;;;9.70;;
15667;SDS011;7934;48.710;9.024;2023-02-28T17:41:20;13.33;;;8.90;;
15667;SDS011;7934;48.710;9.024;2023-02-28T17:43:47;12.37;;;8.73;;
15667;SDS011;7934;48.710;9.024;2023-02-28T17:46:18;13.07;;;9.73;;
15667;SDS011;7934;48.710;9.024;2023-02-28T17:48:45;15.13;;;9.40;;
15667;SDS011;7934;48.710;9.024;2023-02-28T17:51:13;13.83;;;10.30;;
15667;SDS011;7934;48.710;9.024;2023-02-28T17:53:40;13.17;;;9.60;;
15667;SDS011;7934;48.710;9.024;2023-02-28T17:56:10;14.33;;;11.37;;
15667;SDS011;7934;48.710;9.024;2023-02-28T17:58:38;14.32;;;11.73;;
15667;SDS011;7934;48.710;9.024;2023-02-28T18:01:05;13.87;;;10.10;;
15667;SDS011;7934;48.710;9.024;2023-02-28T18:03:34;15.20;;;9.80;;
15667;SDS011;7934;48.710;9.024;2023-02-28T18:06:01;13.90;;;10.10;;
15667;SDS011;7934;48.710;9.024;2023-02-28T18:08:28;16.80;;;10.17;;
15667;SDS011;7934;48.710;9.024;2023-02-28T18:10:55;13.70;;;10.67;;
15667;SDS011;7934;48.710;9.024;2023-02-28T18:13:23;14.03;;;9.47;;
15667;SDS011;7934;48.710;9.024;2023-02-28T18:15:50;13.37;;;9.57;;
15667;SDS011;7934;48.710;9.024;2023-02-28T18:18:17;13.87;;;10.37;;
15667;SDS011;7934;48.710;9.024;2023-02-28T18:20:45;16.43;;;9.40;;
15667;SDS011;7934;48.710;9.024;2023-02-28T18:23:14;15.30;;;10.03;;
15667;SDS011;7934;48.710;9.024;2023-02-28T18:25:42;18.40;;;10.43;;
15667;SDS011;7934;48.710;9.024;2023-02-28T18:28:09;13.17;;;9.53;;
15667;SDS011;7934;48.710;9.024;2023-02-28T18:30:36;11.37;;;9.20;;
15667;SDS011;7934;48.710;9.024;2023-02-28T18:33:03;15.20;;;9.17;;
15667;SDS011;7934;48.710;9.024;2023-02-28T18:35:30;17.73;;;10.13;;
15667;SDS011;7934;48.710;9.024;2023-02-28T18:38:03;15.00;;;10.63;;
15667;SDS011;7934;48.710;9.024;2023-02-28T18:40:31;17.03;;;10.87;;
15667;SDS011;7934;48.710;9.024;2023-02-28T18:42:58;12.20;;;9.17;;
15667;SDS011;7934;48.710;9.024;2023-02-28T18:45:26;12.47;;;10.13;;
15667;SDS011;7934;48.710;9.024;2023-02-28T18:47:53;18.40;;;10.60;;
15667;SDS011;7934;48.710;9.024;2023-02-28T18:50:20;15.20;;;10.47;;